Time;durP1;ratioP1;P1;durP2;ratioP2;P2;SDS_P1;SDS_P2;PMS_P1;PMS_P2;Temp;Humidity;BMP_temperature;BMP_pressure;BME280_temperature;BME280_humidity;BME280_pressure;Samples;Min_cycle;Max_cycle;Signal;HPM_P1;HPM_P2
2023/03/06 00:06:25;;;;;;;1999.90;999.90;;;3.60;99.90;;;;;;6619848;89;20233;-77
2023/03/06 00:16:25;;;;;;;1999.90;999.90;;;3.30;99.90;;;;;;6625673;89;20202;-77
2023/03/06 00:26:26;;;;;;;1999.90;999.90;;;3.10;99.90;;;;;;6633676;88;20589;-77
2023/03/06 00:36:27;;;;;;;1999.90;999.90;;;3.10;99.90;;;;;;6618672;89;20201;-77
2023/03/06 00:46:27;;;;;;;1999.90;999.90;;;3.00;99.90;;;;;;6677780;88;20255;-77
2023/03/06 00:56:28;;;;;;;1999.90;999.90;;;3.00;99.90;;;;;;6663338;88;20323;-77
2023/03/06 01:06:29;;;;;;;1999.90;999.90;;;2.90;99.90;;;;;;6619477;89;20201;-77
2023/03/06 01:16:30;;;;;;;1999.90;999.90;;;3.00;99.90;;;;;;6624210;89;20202;-77
2023/03/06 01:26:32;;;;;;;1999.90;999.90;;;3.10;99.90;;;;;;6620558;89;20571;-77
2023/03/06 01:36:32;;;;;;;1999.90;999.90;;;3.10;99.90;;;;;;6631955;89;20771;-77
2023/03/06 01:46:42;;;;;;;1999.90;999.90;;;3.10;99.90;;;;;;6643016;88;20194;-77
2023/03/06 01:56:47;;;;;;;1999.90;999.90;;;3.20;99.90;;;;;;6621862;89;20185;-77
2023/03/06 02:06:49;;;;;;;1999.90;999.90;;;3.10;99.90;;;;;;6677784;88;20185;-77
2023/03/06 02:16:50;;;;;;;1999.90;999.90;;;3.10;99.90;;;;;;6621841;88;20249;-77
2023/03/06 02:26:52;;;;;;;1999.90;999.90;;;3.20;99.90;;;;;;6619553;89;20700;-76
2023/03/06 02:36:57;;;;;;;1999.90;999.90;;;3.20;99.90;;;;;;6622973;88;20182;-77
2023/03/06 02:46:58;;;;;;;1999.90;999.90;;;3.00;99.90;;;;;;6625239;88;20269;-77
2023/03/06 02:56:58;;;;;;;1999.90;999.90;;;2.90;99.90;;;;;;6623155;89;20644;-77
2023/03/06 03:06:59;;;;;;;1999.90;999.90;;;3.10;99.90;;;;;;6629574;88;20353;-79
2023/03/06 03:17:01;;;;;;;1999.90;999.90;;;3.10;99.90;;;;;;6623561;89;20710;-77
2023/03/06 03:27:02;;;;;;;1999.90;999.90;;;3.30;99.90;;;;;;6626765;89;20231;-78
2023/03/06 03:37:02;;;;;;;1999.90;999.90;;;3.10;99.90;;;;;;6621653;89;20189;-77
2023/03/06 03:47:04;;;;;;;1999.90;999.90;;;3.10;99.90;;;;;;6631201;89;20208;-77
2023/03/06 03:57:04;;;;;;;1999.90;999.90;;;3.10;99.90;;;;;;6650245;88;20202;-78
2023/03/06 04:07:05;;;;;;;1999.90;999.90;;;3.10;99.90;;;;;;6621283;89;20215;-78
2023/03/06 04:17:05;;;;;;;1999.90;999.90;;;3.10;99.90;;;;;;6621053;89;20490;-77
2023/03/06 04:27:06;;;;;;;1999.90;999.90;;;3.00;99.90;;;;;;6666183;88;20204;-77
2023/03/06 04:37:19;;;;;;;1999.90;999.90;;;3.00;99.90;;;;;;6623296;89;20221;-77
2023/03/06 04:47:19;;;;;;;1999.90;999.90;;;3.20;99.90;;;;;;6622685;89;20353;-78
2023/03/06 04:57:20;;;;;;;1999.90;999.90;;;3.00;99.90;;;;;;6621674;89;20236;-77
2023/03/06 05:07:21;;;;;;;1999.90;999.90;;;2.90;99.90;;;;;;6615180;89;20637;-77
2023/03/06 05:17:21;;;;;;;1999.90;999.90;;;3.00;99.90;;;;;;6637885;89;20310;-77
2023/03/06 05:27:22;;;;;;;1999.90;999.90;;;2.90;99.90;;;;;;6622368;89;20713;-78
2023/03/06 05:37:23;;;;;;;1999.90;999.90;;;2.90;99.90;;;;;;6621688;89;20244;-78
2023/03/06 05:47:23;;;;;;;1999.90;999.90;;;3.00;99.90;;;;;;6621008;89;20215;-77
2023/03/06 05:57:24;;;;;;;1999.90;999.90;;;2.90;99.90;;;;;;6623112;89;20217;-78
2023/03/06 06:07:24;;;;;;;1999.90;999.90;;;2.90;99.90;;;;;;6626566;89;20551;-77
2023/03/06 06:17:25;;;;;;;1999.90;999.90;;;3.00;99.90;;;;;;6618750;88;20252;-77
2023/03/06 06:27:25;;;;;;;1999.90;999.90;;;3.00;99.90;;;;;;6650131;88;20205;-77
2023/03/06 06:37:26;;;;;;;1999.90;999.90;;;3.00;99.90;;;;;;6628113;89;20657;-76
2023/03/06 06:47:26;;;;;;;1999.90;999.90;;;3.00;99.90;;;;;;6662855;88;20201;-77
2023/03/06 06:57:27;;;;;;;1999.90;999.90;;;3.00;99.90;;;;;;6620753;89;20259;-78
2023/03/06 07:07:28;;;;;;;1999.90;999.90;;;3.00;99.90;;;;;;6629311;88;20317;-79
2023/03/06 07:17:29;;;;;;;1999.90;999.90;;;3.20;99.90;;;;;;6629246;88;20201;-79
2023/03/06 07:27:29;;;;;;;1999.90;999.90;;;3.10;99.90;;;;;;6629323;88;20219;-78
2023/03/06 07:37:30;;;;;;;1999.90;999.90;;;3.20;99.90;;;;;;6625294;88;20822;-79
2023/03/06 07:47:30;;;;;;;1999.90;999.90;;;3.30;99.90;;;;;;6626099;88;20760;-79
2023/03/06 07:57:31;;;;;;;1999.90;999.90;;;3.40;99.90;;;;;;6630730;89;20226;-78
2023/03/06 08:07:31;;;;;;;1999.90;999.90;;;3.40;99.90;;;;;;6621234;89;20174;-79
2023/03/06 08:17:32;;;;;;;1999.90;999.90;;;3.50;99.90;;;;;;6620444;89;20226;-79
2023/03/06 08:27:33;;;;;;;1999.90;999.90;;;3.60;99.90;;;;;;6621285;89;20787;-78
2023/03/06 08:37:34;;;;;;;1999.90;999.90;;;3.60;99.90;;;;;;6625598;89;20209;-78
2023/03/06 08:47:35;;;;;;;1999.90;999.90;;;3.90;99.90;;;;;;6627323;89;20336;-78
2023/03/06 08:57:35;;;;;;;1999.90;999.90;;;4.30;99.90;;;;;;6628857;89;20320;-79
2023/03/06 09:07:36;;;;;;;1999.90;999.90;;;4.30;99.90;;;;;;6628784;89;20197;-79
2023/03/06 09:17:37;;;;;;;1999.90;999.90;;;4.40;99.90;;;;;;6621467;89;20202;-79
2023/03/06 09:27:37;;;;;;;1999.90;999.90;;;4.60;99.90;;;;;;6626172;89;20219;-79
2023/03/06 09:37:37;;;;;;;1999.90;999.90;;;4.40;99.90;;;;;;6628679;89;20224;-80
2023/03/06 09:47:47;;;;;;;1999.90;999.90;;;4.60;99.90;;;;;;6626885;89;20681;-79
2023/03/06 09:58:09;;;;;;;1999.90;999.90;;;4.70;99.90;;;;;;6629507;89;20272;-79
2023/03/06 10:08:19;;;;;;;1999.90;999.90;;;4.80;99.90;;;;;;6616824;90;20806;-79
2023/03/06 10:18:20;;;;;;;1999.90;999.90;;;5.10;99.90;;;;;;6608566;90;20209;-78
2023/03/06 10:28:28;;;;;;;1999.90;999.90;;;5.20;99.90;;;;;;6625389;89;20256;-78
2023/03/06 10:38:31;;;;;;;1999.90;999.90;;;5.20;99.90;;;;;;6626586;89;20337;-79
2023/03/06 10:48:34;;;;;;;1999.90;999.90;;;5.40;99.90;;;;;;6612194;89;20210;-80
2023/03/06 10:58:35;;;;;;;1999.90;999.90;;;5.60;99.90;;;;;;6612264;89;20702;-79
2023/03/06 11:08:36;;;;;;;1999.90;999.90;;;5.60;99.90;;;;;;6611747;89;20182;-78
2023/03/06 11:18:39;;;;;;;1999.90;999.90;;;5.60;99.90;;;;;;6612596;90;20210;-79
2023/03/06 11:28:56;;;;;;;1999.90;999.90;;;5.40;99.90;;;;;;6613125;90;20198;-78
2023/03/06 11:38:56;;;;;;;1999.90;999.90;;;5.70;99.90;;;;;;6637287;89;20202;-78
2023/03/06 11:49:23;;;;;;;1999.90;999.90;;;6.10;99.90;;;;;;6631196;89;20660;-78
2023/03/06 11:59:32;;;;;;;1999.90;999.90;;;6.20;99.90;;;;;;6613512;90;20206;-79
2023/03/06 12:09:47;;;;;;;1999.90;999.90;;;6.10;99.90;;;;;;6613064;89;20186;-79
2023/03/06 12:20:12;;;;;;;1999.90;999.90;;;5.90;99.90;;;;;;6614052;90;20625;-79
2023/03/06 12:30:36;;;;;;;1999.90;999.90;;;6.10;99.90;;;;;;6612321;90;20203;-79
2023/03/06 12:40:43;;;;;;;1999.90;999.90;;;6.30;99.90;;;;;;6608004;89;20182;-79
2023/03/06 12:50:44;;;;;;;1999.90;999.90;;;6.50;99.90;;;;;;6609733;89;20721;-78
2023/03/06 13:01:31;;;;;;;1999.90;999.90;;;6.20;99.90;;;;;;6610182;90;20352;-78
2023/03/06 13:11:47;;;;;;;1999.90;999.90;;;6.00;99.90;;;;;;6610423;90;20204;-77
2023/03/06 13:22:00;;;;;;;1999.90;999.90;;;6.00;99.90;;;;;;6608175;90;20186;-78
2023/03/06 13:32:01;;;;;;;1999.90;999.90;;;6.20;99.90;;;;;;6608291;90;20226;-78
2023/03/06 13:42:05;;;;;;;1999.90;999.90;;;6.50;99.90;;;;;;6619042;89;20222;-78
2023/03/06 13:52:21;;;;;;;1999.90;999.90;;;6.50;99.90;;;;;;6607401;90;20193;-78
2023/03/06 14:03:00;;;;;;;1999.90;999.90;;;6.60;99.90;;;;;;6608027;90;20236;-77
2023/03/06 14:13:05;;;;;;;1999.90;999.90;;;6.80;99.90;;;;;;6608444;89;20241;-79
2023/03/06 14:23:28;;;;;;;1999.90;999.90;;;6.70;99.90;;;;;;6607242;90;20238;-78
2023/03/06 14:33:51;;;;;;;1999.90;999.90;;;6.70;99.90;;;;;;6601724;90;20198;-77
2023/03/06 14:43:52;;;;;;;1999.90;999.90;;;6.90;99.90;;;;;;6612633;77;20214;-78
2023/03/06 14:53:59;;;;;;;1999.90;999.90;;;6.80;99.90;;;;;;6647519;89;20274;-77
2023/03/06 15:04:00;;;;;;;1999.90;999.90;;;6.80;99.90;;;;;;6651979;89;20358;-77
2023/03/06 15:14:03;;;;;;;1999.90;999.90;;;6.00;99.90;;;;;;6648842;89;20196;-76
2023/03/06 15:24:33;;;;;;;1999.90;999.90;;;5.80;99.90;;;;;;6642278;89;20188;-76
2023/03/06 15:34:33;;;;;;;1999.90;999.90;;;5.70;99.90;;;;;;6689904;88;20335;-77
2023/03/06 15:44:34;;;;;;;1999.90;999.90;;;5.70;99.90;;;;;;6659500;88;20205;-77
2023/03/06 15:54:35;;;;;;;1999.90;999.90;;;5.70;99.90;;;;;;6632778;89;20196;-77
2023/03/06 16:04:35;;;;;;;1999.90;999.90;;;5.70;99.90;;;;;;6646307;89;21082;-78
2023/03/06 16:14:36;;;;;;;1999.90;999.90;;;5.50;99.90;;;;;;6671810;88;20206;-77
2023/03/06 16:24:36;;;;;;;1999.90;999.90;;;5.40;99.90;;;;;;6659506;89;20239;-79
2023/03/06 16:34:37;;;;;;;1999.90;999.90;;;5.40;99.90;;;;;;6655798;88;20181;-77
2023/03/06 16:44:37;;;;;;;1999.90;999.90;;;5.20;99.90;;;;;;6677982;88;20208;-77
2023/03/06 16:54:38;;;;;;;1999.90;999.90;;;5.20;99.90;;;;;;6664328;88;20204;-76
2023/03/06 17:04:38;;;;;;;1999.90;999.90;;;5.30;99.90;;;;;;6684133;88;20186;-77
2023/03/06 17:14:39;;;;;;;1999.90;999.90;;;5.10;99.90;;;;;;6648974;88;20212;-76
2023/03/06 17:24:40;;;;;;;1999.90;999.90;;;5.00;99.90;;;;;;6655515;88;20317;-77
2023/03/06 17:34:40;;;;;;;1999.90;999.90;;;5.10;99.90;;;;;;6672185;89;21151;-77
2023/03/06 17:44:41;;;;;;;1999.90;999.90;;;5.00;99.90;;;;;;6651895;88;20221;-78
2023/03/06 17:54:41;;;;;;;1999.90;999.90;;;5.30;99.90;;;;;;6654633;88;20546;-76
2023/03/06 18:04:42;;;;;;;1999.90;999.90;;;5.30;99.90;;;;;;6646385;88;20220;-77
2023/03/06 18:14:43;;;;;;;1999.90;999.90;;;5.20;99.90;;;;;;6644532;88;20590;-77
2023/03/06 18:24:43;;;;;;;1999.90;999.90;;;5.10;99.90;;;;;;6649967;88;20641;-76
2023/03/06 18:34:44;;;;;;;1999.90;999.90;;;5.00;99.90;;;;;;6646115;88;20249;-78
2023/03/06 18:44:46;;;;;;;1999.90;999.90;;;4.80;99.90;;;;;;6647146;88;20289;-78
2023/03/06 18:54:48;;;;;;;1999.90;999.90;;;4.80;99.90;;;;;;6644952;89;20638;-78
2023/03/06 19:04:49;;;;;;;1999.90;999.90;;;4.80;99.90;;;;;;6663559;88;20661;-77
2023/03/06 19:14:49;;;;;;;1999.90;999.90;;;4.70;99.90;;;;;;6642006;89;20184;-77
2023/03/06 19:24:50;;;;;;;1999.90;999.90;;;4.70;99.90;;;;;;6645282;89;20612;-77
2023/03/06 19:34:51;;;;;;;1999.90;999.90;;;4.80;99.90;;;;;;6646411;88;20643;-77
2023/03/06 19:44:51;;;;;;;1999.90;999.90;;;4.70;99.90;;;;;;6646091;88;20301;-76
2023/03/06 19:54:52;;;;;;;1999.90;999.90;;;4.60;99.90;;;;;;6654836;88;20287;-77
2023/03/06 20:04:53;;;;;;;1999.90;999.90;;;4.60;99.90;;;;;;6650279;88;20970;-77
2023/03/06 20:14:54;;;;;;;1999.90;999.90;;;4.50;99.90;;;;;;6650496;88;20230;-75
2023/03/06 20:24:54;;;;;;;1999.90;999.90;;;4.60;99.90;;;;;;6653189;88;20743;-75
2023/03/06 20:34:55;;;;;;;1999.90;999.90;;;4.60;99.90;;;;;;6645820;89;20205;-76
2023/03/06 20:55:00;;;;;;;1999.90;999.90;;;4.60;99.90;;;;;;6650922;88;20677;-80
2023/03/06 21:05:03;;;;;;;1999.90;999.90;;;4.50;99.90;;;;;;6714352;88;20293;-79
2023/03/06 21:15:05;;;;;;;1999.90;999.90;;;4.50;99.90;;;;;;6711007;88;20241;-79
2023/03/06 21:25:05;;;;;;;1999.90;999.90;;;4.40;99.90;;;;;;6711511;88;20241;-79
2023/03/06 21:35:07;;;;;;;1999.90;999.90;;;4.20;99.90;;;;;;6708116;88;20218;-78
2023/03/06 21:45:11;;;;;;;1999.90;999.90;;;4.20;99.90;;;;;;6702504;88;20258;-78
2023/03/06 21:55:12;;;;;;;1999.90;999.90;;;4.30;99.90;;;;;;6700806;88;20202;-78
2023/03/06 22:05:13;;;;;;;1999.90;999.90;;;4.40;99.90;;;;;;6703280;88;20194;-77
2023/03/06 22:15:13;;;;;;;1999.90;999.90;;;4.40;99.90;;;;;;6695494;88;20219;-78
2023/03/06 22:25:14;;;;;;;1999.90;999.90;;;4.40;99.90;;;;;;6705355;88;20215;-78
2023/03/06 22:35:14;;;;;;;1999.90;999.90;;;4.50;99.90;;;;;;6702182;88;20493;-77
2023/03/06 22:45:15;;;;;;;1999.90;999.90;;;4.60;99.90;;;;;;6696850;88;20237;-77
2023/03/06 22:55:16;;;;;;;1999.90;999.90;;;4.70;99.90;;;;;;6701615;88;20386;-78
2023/03/06 23:05:17;;;;;;;1999.90;999.90;;;4.80;99.90;;;;;;6702974;88;20504;-78
2023/03/06 23:15:17;;;;;;;1999.90;999.90;;;4.80;99.90;;;;;;6700815;88;20542;-78
2023/03/06 23:25:17;;;;;;;1999.90;999.90;;;4.70;99.90;;;;;;6705862;88;20229;-78
2023/03/06 23:35:18;;;;;;;1999.90;999.90;;;4.80;99.90;;;;;;6704451;88;20373;-77
2023/03/06 23:45:19;;;;;;;1999.90;999.90;;;4.70;99.90;;;;;;6704717;88;20194;-78
2023/03/06 23:55:20;;;;;;;1999.90;999.90;;;4.70;99.90;;;;;;6701485;88;20204;-78
